Terminal Aerodrome Forecast
Issued by NWS

Home | Current Version | Previous Version | Graphics & Text | Print | Product List | Glossary On
Versions: 1 2 3 4 5 6 7 8 9 10 11 12 13 14 15 16 17 18 19 20 21 22 23 24 25 26 27 28 29 30 31
000
FTUS43 KABR 161158 CCA
TAFATY
TAF COR
KATY 161158Z 1612/1712 17005KT 5SM BR VCSH OVC009
     FM161700 VRB03KT 3SM -SHRA OVC015
     FM162100 36012KT 3SM -SHRA OVC010
     FM170000 35012KT P6SM OVC008
     FM171000 33010KT P6SM BKN010=

USA.gov is the U.S. government's official web portal to all federal, state and local government web resources and services.